createdAt,value
2022-11-15T00:01:27.089Z,11.10
2022-11-15T00:03:54.892Z,11.10
2022-11-15T00:06:22.603Z,11.10
2022-11-15T00:08:50.374Z,11.10
2022-11-15T00:11:18.059Z,11.10
2022-11-15T00:13:45.832Z,11.10
2022-11-15T00:16:13.708Z,11.10
2022-11-15T00:18:47.811Z,11.10
2022-11-15T00:21:19.339Z,11.10
2022-11-15T00:23:47.166Z,11.10
2022-11-15T00:26:16.307Z,11.10
2022-11-15T00:28:44.313Z,11.10
2022-11-15T00:31:15.136Z,11.10
2022-11-15T00:33:46.637Z,11.00
2022-11-15T00:36:14.632Z,11.00
2022-11-15T00:41:10.861Z,11.00
2022-11-15T00:43:40.718Z,10.90
2022-11-15T00:46:09.895Z,10.90
2022-11-15T00:48:37.897Z,10.90
2022-11-15T00:51:07.240Z,10.80
2022-11-15T00:53:35.293Z,10.80
2022-11-15T00:56:03.176Z,10.90
2022-11-15T00:58:31.122Z,10.80
2022-11-15T05:03:06.369Z,11.10
2022-11-15T05:05:34.420Z,11.00
2022-11-15T05:08:02.457Z,11.00
2022-11-15T05:10:30.484Z,11.00
2022-11-15T05:12:58.335Z,10.90
2022-11-15T05:15:26.210Z,10.90
2022-11-15T05:17:59.656Z,10.90
2022-11-15T05:20:27.491Z,10.90
2022-11-15T05:22:56.294Z,11.00
2022-11-15T05:25:24.257Z,11.00
2022-11-15T05:27:52.132Z,11.00
2022-11-15T05:30:20.128Z,11.00
2022-11-15T05:32:48.040Z,11.00
2022-11-15T05:35:24.814Z,10.90
2022-11-15T05:37:52.709Z,10.90
2022-11-15T05:40:20.654Z,10.90
2022-11-15T05:42:49.115Z,10.90
2022-11-15T05:45:21.320Z,10.90
2022-11-15T05:47:52.350Z,10.90
2022-11-15T05:50:21.885Z,10.90
2022-11-15T05:52:50.016Z,10.90
2022-11-15T05:55:18.143Z,10.80
2022-11-15T05:57:46.877Z,10.80
2022-11-15T06:00:15.613Z,10.80
2022-11-15T06:02:43.576Z,10.80
2022-11-15T06:07:42.203Z,10.80
2022-11-15T06:10:10.980Z,10.80
2022-11-15T06:12:39.127Z,10.80
2022-11-15T06:15:08.258Z,10.80
2022-11-15T06:17:36.231Z,10.90
2022-11-15T06:20:04.461Z,10.80
2022-11-15T06:25:05.404Z,10.90
2022-11-15T06:27:33.762Z,10.90
2022-11-15T06:30:02.261Z,10.90
2022-11-15T06:32:31.453Z,11.00
2022-11-15T06:34:59.531Z,10.90
2022-11-15T06:37:27.543Z,11.00
2022-11-15T06:39:55.410Z,11.00
2022-11-15T06:42:24.611Z,11.00
2022-11-15T06:44:52.471Z,11.00
2022-11-15T06:47:20.261Z,11.10
2022-11-15T06:49:48.195Z,11.10
2022-11-15T06:52:16.167Z,11.10
2022-11-15T06:54:44.075Z,11.10
2022-11-15T06:57:11.914Z,11.10
2022-11-15T06:59:41.143Z,11.10
2022-11-15T07:02:14.442Z,11.10
2022-11-15T07:04:42.369Z,11.20
2022-11-15T07:07:10.389Z,11.20
2022-11-15T07:09:38.313Z,11.20
2022-11-15T07:12:08.012Z,11.20
2022-11-15T07:14:36.627Z,11.30
2022-11-15T07:19:35.280Z,11.30
2022-11-15T07:22:03.173Z,11.40
2022-11-15T07:24:31.594Z,11.40
2022-11-15T07:26:59.447Z,11.40
2022-11-15T07:29:27.668Z,11.40
2022-11-15T07:31:55.827Z,11.50
2022-11-15T07:34:25.849Z,11.50
2022-11-15T07:39:22.132Z,11.50
2022-11-15T07:41:50.413Z,11.50
2022-11-15T07:44:18.246Z,11.50
2022-11-15T07:49:14.484Z,11.50
2022-11-15T07:51:46.348Z,11.50
2022-11-15T07:54:14.219Z,11.50
2022-11-15T07:56:42.366Z,11.60
2022-11-15T07:59:10.258Z,11.50
2022-11-15T08:01:38.276Z,11.50
2022-11-15T08:04:06.236Z,11.50
2022-11-15T08:06:34.114Z,11.60
2022-11-15T08:11:31.990Z,11.60
2022-11-15T08:14:00.600Z,11.60
2022-11-15T08:16:28.525Z,11.70
2022-11-15T08:21:27.911Z,11.90
2022-11-15T08:23:55.823Z,11.80
2022-11-15T08:26:25.853Z,12.00
2022-11-15T08:28:53.741Z,12.00
2022-11-15T08:31:21.829Z,12.10
2022-11-15T08:33:49.910Z,12.10
2022-11-15T08:36:18.752Z,12.20
2022-11-15T08:38:46.997Z,12.20
2022-11-15T08:41:21.499Z,12.20
2022-11-15T08:43:50.847Z,12.30
2022-11-15T08:46:19.355Z,12.30
2022-11-15T08:48:47.361Z,12.30
2022-11-15T08:51:15.330Z,12.40
2022-11-15T08:53:43.463Z,12.40
2022-11-15T08:56:13.190Z,12.50
2022-11-15T08:58:41.349Z,12.50
2022-11-15T09:01:18.641Z,12.40
2022-11-15T09:03:46.879Z,12.50
2022-11-15T09:06:15.775Z,12.60
2022-11-15T09:11:21.295Z,12.60
2022-11-15T09:13:49.623Z,12.60
2022-11-15T09:16:18.844Z,12.70
2022-11-15T09:18:46.754Z,12.70
2022-11-15T09:21:14.768Z,12.70
2022-11-15T09:23:42.505Z,12.80
2022-11-15T09:26:10.378Z,12.90
2022-11-15T09:28:42.681Z,12.90
2022-11-15T09:31:10.752Z,13.00
2022-11-15T09:36:10.165Z,13.10
2022-11-15T09:38:38.633Z,13.10
2022-11-15T09:41:33.282Z,13.10
2022-11-15T09:44:12.080Z,13.10
2022-11-15T09:46:53.371Z,13.10
2022-11-15T09:49:23.438Z,13.20
2022-11-15T09:51:55.836Z,13.20
2022-11-15T09:54:52.151Z,13.20
2022-11-15T09:57:20.500Z,13.20
2022-11-15T10:00:07.677Z,13.30
2022-11-15T10:03:09.591Z,13.30
2022-11-15T10:05:42.634Z,13.50
2022-11-15T10:08:27.139Z,13.60
2022-11-15T10:13:54.461Z,13.70
2022-11-15T10:16:37.598Z,13.90
2022-11-15T10:19:16.740Z,13.90
2022-11-15T10:21:56.375Z,14.00
2022-11-15T10:24:37.811Z,14.20
2022-11-15T10:27:11.813Z,14.20
2022-11-15T10:29:45.469Z,14.20
2022-11-15T10:32:46.278Z,14.30
2022-11-15T10:35:25.029Z,14.30
2022-11-15T10:37:58.703Z,14.30
2022-11-15T10:40:26.966Z,14.30
2022-11-15T10:43:15.446Z,15.90
2022-11-15T10:45:44.035Z,14.20
2022-11-15T10:48:23.979Z,14.20
2022-11-15T10:50:53.648Z,14.20
2022-11-15T10:53:27.941Z,14.20
2022-11-15T10:55:58.342Z,14.20
2022-11-15T10:58:35.164Z,14.20
2022-11-15T11:01:16.106Z,14.20
2022-11-15T11:03:45.630Z,14.20
2022-11-15T11:06:15.637Z,14.30
2022-11-15T11:08:56.792Z,14.30
2022-11-15T11:11:25.116Z,14.30
2022-11-15T11:14:01.441Z,14.40
2022-11-15T11:16:43.989Z,14.40
2022-11-15T11:19:41.157Z,14.40
2022-11-15T11:22:20.427Z,14.40
2022-11-15T11:24:58.906Z,14.50
2022-11-15T11:30:15.575Z,14.60
2022-11-15T11:32:57.849Z,14.60
2022-11-15T11:35:31.597Z,14.60
2022-11-15T11:38:10.727Z,14.60
2022-11-15T11:40:56.183Z,14.60
2022-11-15T11:43:30.968Z,14.60
2022-11-15T11:46:11.905Z,14.60
2022-11-15T11:48:44.233Z,14.60
2022-11-15T11:51:19.989Z,14.60
2022-11-15T11:53:54.078Z,14.60
2022-11-15T11:56:29.560Z,14.70
2022-11-15T11:59:04.182Z,14.70
2022-11-15T12:01:36.878Z,14.70
2022-11-15T12:04:11.979Z,14.70
2022-11-15T12:06:46.771Z,14.70
2022-11-15T12:09:18.818Z,14.70
2022-11-15T12:11:54.473Z,14.70
2022-11-15T12:14:30.975Z,14.70
2022-11-15T12:16:59.865Z,14.70
2022-11-15T12:19:28.273Z,14.70
2022-11-15T12:22:03.093Z,14.80
2022-11-15T12:24:37.328Z,14.80
2022-11-15T12:27:14.920Z,14.80
2022-11-15T12:29:49.851Z,14.80
2022-11-15T12:32:27.550Z,14.80
2022-11-15T12:34:56.794Z,14.80
2022-11-15T12:37:50.867Z,14.80
2022-11-15T12:40:24.645Z,14.80
2022-11-15T12:43:06.236Z,14.80
2022-11-15T12:45:36.298Z,14.80
2022-11-15T12:48:41.976Z,14.80
2022-11-15T12:51:10.000Z,14.80
2022-11-15T12:53:38.106Z,14.70
2022-11-15T12:56:26.761Z,14.60
2022-11-15T12:58:58.381Z,14.60
2022-11-15T13:02:01.138Z,15.30
2022-11-15T13:04:31.111Z,14.70
2022-11-15T13:07:02.300Z,14.70
2022-11-15T13:09:54.633Z,14.70
2022-11-15T13:12:56.223Z,14.70
2022-11-15T13:15:57.337Z,14.70
2022-11-15T13:18:40.840Z,14.70
2022-11-15T13:21:42.049Z,14.80
2022-11-15T13:24:16.403Z,14.80
2022-11-15T13:26:45.113Z,14.80
2022-11-15T13:29:20.465Z,14.80
2022-11-15T13:31:50.384Z,14.80
2022-11-15T13:34:50.580Z,14.80
2022-11-15T13:37:31.865Z,14.80
2022-11-15T13:40:25.515Z,14.90
2022-11-15T13:53:12.329Z,14.90
2022-11-15T13:55:40.370Z,14.80
2022-11-15T14:00:40.977Z,14.80
2022-11-15T14:03:18.652Z,14.80
2022-11-15T14:08:26.304Z,14.80
2022-11-15T14:16:19.764Z,14.80
2022-11-15T14:18:51.224Z,14.80
2022-11-15T14:21:20.342Z,14.80
2022-11-15T14:26:34.121Z,14.80
2022-11-15T14:29:26.874Z,14.80
2022-11-15T14:31:55.263Z,14.70
2022-11-15T14:34:25.053Z,15.00
2022-11-15T14:36:53.329Z,14.80
2022-11-15T14:39:21.328Z,14.80
2022-11-15T14:41:49.372Z,14.70
2022-11-15T14:44:19.888Z,14.70
2022-11-15T14:46:49.091Z,14.70
2022-11-15T14:49:17.365Z,14.70
2022-11-15T14:51:46.711Z,14.70
2022-11-15T14:54:14.773Z,14.60
2022-11-15T14:56:43.553Z,14.60
2022-11-15T14:59:14.423Z,14.60
2022-11-15T15:01:42.598Z,14.50
2022-11-15T15:04:12.327Z,14.50
2022-11-15T15:06:40.867Z,14.50
2022-11-15T15:09:10.165Z,14.50
2022-11-15T15:11:38.186Z,14.50
2022-11-15T15:14:06.159Z,14.50
2022-11-15T15:16:34.135Z,14.50
2022-11-15T15:19:02.204Z,14.50
2022-11-15T15:21:37.394Z,14.30
2022-11-15T15:26:37.374Z,14.20
2022-11-15T15:29:05.580Z,14.20
2022-11-15T15:34:02.781Z,14.20
2022-11-15T15:36:30.584Z,14.20
2022-11-15T15:38:58.474Z,14.10
2022-11-15T15:41:26.507Z,14.10
2022-11-15T15:43:55.714Z,14.10
2022-11-15T15:46:23.585Z,14.10
2022-11-15T15:48:51.756Z,14.10
2022-11-15T15:51:20.701Z,14.00
2022-11-15T15:53:49.513Z,14.00
2022-11-15T15:56:17.391Z,13.90
2022-11-15T15:58:45.363Z,13.90
2022-11-15T16:01:15.634Z,13.80
2022-11-15T16:03:43.639Z,13.80
2022-11-15T16:06:37.471Z,13.80
2022-11-15T16:09:20.525Z,13.80
2022-11-15T16:14:17.518Z,13.80
2022-11-15T16:19:14.988Z,13.80
2022-11-15T16:21:42.967Z,13.80
2022-11-15T16:24:10.917Z,13.90
2022-11-15T16:26:40.005Z,13.80
2022-11-15T16:29:10.238Z,13.90
2022-11-15T16:31:38.406Z,13.80
2022-11-15T16:34:08.320Z,13.90
2022-11-15T16:36:37.489Z,13.80
2022-11-15T16:39:06.056Z,13.80
2022-11-15T16:44:29.572Z,10.50
2022-11-15T16:46:57.644Z,13.90
2022-11-15T16:49:27.072Z,13.90
2022-11-15T16:51:54.865Z,13.90
2022-11-15T16:54:23.061Z,13.80
2022-11-15T16:56:51.104Z,12.30
2022-11-15T16:59:20.854Z,13.90
2022-11-15T17:01:52.731Z,13.90
2022-11-15T17:04:22.681Z,13.90
2022-11-15T17:06:53.176Z,13.80
2022-11-15T17:09:24.472Z,13.90
2022-11-15T17:11:53.076Z,13.80
2022-11-15T17:14:21.975Z,13.80
2022-11-15T17:16:50.097Z,13.80
2022-11-15T17:19:21.815Z,13.80
2022-11-15T17:21:51.553Z,13.70
2022-11-15T17:24:20.956Z,13.70
2022-11-15T17:26:49.040Z,13.70
2022-11-15T17:29:16.850Z,13.70
2022-11-15T17:31:44.824Z,13.70
2022-11-15T17:36:41.037Z,13.70
2022-11-15T17:41:40.489Z,13.70
2022-11-15T17:44:08.399Z,13.60
2022-11-15T17:46:36.402Z,13.60
2022-11-15T17:49:04.234Z,13.60
2022-11-15T17:51:31.957Z,13.60
2022-11-15T17:54:00.023Z,13.60
2022-11-15T17:56:31.615Z,13.60
2022-11-15T17:59:00.921Z,13.60
2022-11-15T18:01:30.379Z,13.60
2022-11-15T18:04:00.406Z,13.60
2022-11-15T18:06:30.371Z,13.60
2022-11-15T18:11:29.760Z,13.60
2022-11-15T18:14:02.996Z,13.70
2022-11-15T18:16:33.486Z,13.70
2022-11-15T18:19:02.644Z,12.90
2022-11-15T18:21:33.879Z,13.70
2022-11-15T18:24:03.418Z,13.60
2022-11-15T18:26:32.620Z,13.60
2022-11-15T18:29:05.057Z,13.60
2022-11-15T18:31:33.212Z,13.60
2022-11-15T18:34:01.458Z,13.60
2022-11-15T18:36:31.277Z,13.60
2022-11-15T18:39:02.447Z,13.60
2022-11-15T18:41:32.487Z,13.70
2022-11-15T18:44:01.701Z,13.60
2022-11-15T18:46:31.668Z,13.50
2022-11-15T18:49:00.598Z,13.70
2022-11-15T18:51:31.405Z,13.70
2022-11-15T18:54:00.800Z,13.70
2022-11-15T18:56:30.054Z,13.70
2022-11-15T18:59:00.525Z,13.70
2022-11-15T19:01:32.615Z,13.70
2022-11-15T19:04:01.004Z,13.70
2022-11-15T19:06:29.954Z,13.70
2022-11-15T19:09:00.487Z,13.60
2022-11-15T19:11:31.073Z,13.60
2022-11-15T19:14:03.098Z,13.60
2022-11-15T19:16:33.157Z,13.60
2022-11-15T19:19:02.319Z,13.60
2022-11-15T19:21:31.243Z,13.60
2022-11-15T19:23:59.865Z,13.70
2022-11-15T19:26:28.773Z,13.70
2022-11-15T19:28:57.835Z,13.70
2022-11-15T19:31:28.237Z,13.70
2022-11-15T19:33:56.610Z,13.70
2022-11-15T19:36:26.776Z,13.70
2022-11-15T19:38:56.049Z,13.70
2022-11-15T19:41:25.630Z,13.70
2022-11-15T19:43:54.252Z,13.70
2022-11-15T19:46:23.627Z,13.60
2022-11-15T19:48:52.977Z,13.70
2022-11-15T19:51:22.495Z,13.70
2022-11-15T19:53:52.582Z,13.70
2022-11-15T19:56:21.409Z,13.70
2022-11-15T19:58:52.326Z,13.70
2022-11-15T20:01:22.092Z,13.70
2022-11-15T20:03:54.353Z,13.70
2022-11-15T20:06:24.153Z,13.70
2022-11-15T20:08:52.372Z,13.70
2022-11-15T20:11:20.943Z,13.60
2022-11-15T20:13:48.960Z,13.60
2022-11-15T20:16:19.006Z,13.60
2022-11-15T20:18:47.706Z,13.60
2022-11-15T20:21:17.284Z,13.60
2022-11-15T20:23:45.561Z,13.60
2022-11-15T20:26:15.850Z,13.60
2022-11-15T20:28:44.668Z,13.60
2022-11-15T20:31:13.318Z,13.60
2022-11-15T20:33:41.348Z,13.60
2022-11-15T20:36:12.291Z,13.60
2022-11-15T20:38:41.783Z,13.60
2022-11-15T20:41:11.472Z,13.60
2022-11-15T20:43:41.611Z,13.50
2022-11-15T20:46:09.635Z,13.50
2022-11-15T20:48:37.437Z,13.50
2022-11-15T20:51:07.079Z,13.50
2022-11-15T20:53:35.340Z,13.50
2022-11-15T20:56:11.207Z,13.50
2022-11-15T20:58:39.055Z,13.50
2022-11-15T21:01:08.813Z,13.40
2022-11-15T21:03:37.243Z,13.40
2022-11-15T21:06:05.164Z,13.40
2022-11-15T21:08:53.364Z,13.40
2022-11-15T21:11:40.258Z,13.30
2022-11-15T21:14:09.781Z,13.40
2022-11-15T21:16:37.841Z,13.40
2022-11-15T21:19:06.547Z,13.40
2022-11-15T21:21:34.790Z,13.40
2022-11-15T21:24:03.748Z,13.30
2022-11-15T21:26:32.922Z,13.30
2022-11-15T21:31:28.922Z,13.30
2022-11-15T21:33:56.804Z,13.30
2022-11-15T21:36:25.365Z,13.30
2022-11-15T21:38:53.575Z,13.30
2022-11-15T21:41:21.351Z,13.30
2022-11-15T21:43:50.555Z,13.30
2022-11-15T21:46:18.555Z,13.30
2022-11-15T21:48:46.566Z,13.30
2022-11-15T21:51:14.340Z,13.30
2022-11-15T21:53:42.170Z,13.20
2022-11-15T21:56:11.808Z,13.20
2022-11-15T21:58:40.419Z,13.20
2022-11-15T22:01:29.771Z,13.30
2022-11-15T22:03:57.714Z,13.30
2022-11-15T22:06:25.533Z,13.30
2022-11-15T22:08:53.282Z,13.30
2022-11-15T22:11:21.140Z,13.30
2022-11-15T22:13:48.943Z,13.20
2022-11-15T22:16:17.988Z,13.20
2022-11-15T22:18:45.973Z,13.20
2022-11-15T22:21:15.663Z,13.20
2022-11-15T22:23:44.450Z,13.20
2022-11-15T22:26:14.377Z,13.30
2022-11-15T22:28:42.631Z,13.30
2022-11-15T22:31:11.486Z,13.30
2022-11-15T22:33:40.792Z,13.30
2022-11-15T22:36:09.697Z,13.30
2022-11-15T22:38:37.759Z,13.30
2022-11-15T22:41:05.792Z,13.30
2022-11-15T22:43:33.756Z,13.20
2022-11-15T22:46:02.612Z,13.20
2022-11-15T22:48:33.196Z,13.20
2022-11-15T22:51:03.466Z,13.20
2022-11-15T22:53:31.423Z,13.20
2022-11-15T22:56:01.267Z,13.20
2022-11-15T22:58:30.205Z,13.20
2022-11-15T23:01:00.783Z,13.20
2022-11-15T23:03:30.236Z,13.20
2022-11-15T23:06:04.896Z,13.20
2022-11-15T23:08:33.263Z,13.20
2022-11-15T23:11:19.447Z,13.20
2022-11-15T23:13:47.539Z,13.20
2022-11-15T23:16:25.593Z,13.20
2022-11-15T23:18:55.298Z,13.20
2022-11-15T23:21:52.643Z,13.10
2022-11-15T23:24:21.336Z,13.10
2022-11-15T23:26:50.904Z,13.10
2022-11-15T23:29:20.989Z,13.10
2022-11-15T23:34:38.545Z,13.00
2022-11-15T23:37:09.074Z,13.00
2022-11-15T23:39:36.969Z,13.00
2022-11-15T23:42:08.995Z,13.00
2022-11-15T23:44:37.686Z,12.90
2022-11-15T23:49:33.805Z,12.90
2022-11-15T23:52:01.672Z,12.90
2022-11-15T23:54:31.668Z,12.90
2022-11-15T23:56:59.551Z,12.90
2022-11-15T23:59:27.601Z,12.90
